Terminal Aerodrome Forecast
Issued by NWS

Home | Current Version | Previous Version | Text Only | Print | Product List | Glossary On
Versions: 1 2 3 4 5 6 7 8 9 10 11 12 13 14 15 16 17 18 19 20 21 22 23 24 25 26 27 28 29
000
FTUS43 KDLH 280800 AAA
TAFHYR
TAF AMD
KHYR 280807Z 2808/2906 VRB02KT 6SM BR SCT220
      TEMPO 2809/2812 3/4SM BR SCT004 BKN045
     FM281300 16004KT P6SM SCT050
     FM281900 16006KT P6SM VCTS BKN050CB=

USA.gov is the U.S. government's official web portal to all federal, state and local government web resources and services.